createdAt,value
2018-04-07T00:06:45.300Z,62.50
2018-04-07T00:09:18.994Z,61.80
2018-04-07T00:11:51.693Z,62.10
2018-04-07T00:14:24.434Z,62.20
2018-04-07T00:16:57.153Z,62.00
2018-04-07T00:19:33.015Z,62.00
2018-04-07T00:22:06.082Z,61.10
2018-04-07T00:24:38.820Z,61.40
2018-04-07T00:27:15.215Z,60.20
2018-04-07T00:29:47.961Z,60.20
2018-04-07T00:32:26.539Z,60.80
2018-04-07T00:34:59.285Z,60.80
2018-04-07T00:37:33.991Z,60.10
2018-04-07T00:40:06.842Z,60.80
2018-04-07T00:42:40.354Z,60.30
2018-04-07T00:45:17.428Z,59.80
2018-04-07T00:47:50.117Z,59.70
2018-04-07T00:50:23.613Z,59.90
2018-04-07T00:52:57.119Z,60.40
2018-04-07T00:55:30.669Z,60.20
2018-04-07T00:58:03.382Z,60.90
2018-04-07T01:00:38.978Z,60.60
2018-04-07T01:03:11.674Z,60.00
2018-04-07T01:05:44.427Z,59.90
2018-04-07T01:08:19.195Z,60.60
2018-04-07T01:10:51.933Z,60.60
2018-04-07T01:13:24.626Z,60.50
2018-04-07T01:15:58.180Z,60.80
2018-04-07T01:18:31.646Z,61.20
2018-04-07T01:21:06.314Z,61.10
2018-04-07T01:23:41.519Z,61.20
2018-04-07T01:26:16.943Z,61.80
2018-04-07T01:28:51.200Z,61.90
2018-04-07T01:31:29.227Z,61.60
2018-04-07T01:34:07.675Z,61.70
2018-04-07T01:36:45.235Z,61.40
2018-04-07T01:39:19.879Z,60.40
2018-04-07T01:41:56.301Z,61.00
2018-04-07T01:44:31.928Z,61.10
2018-04-07T01:47:11.348Z,60.70
2018-04-07T01:49:48.049Z,61.10
2018-04-07T01:52:24.197Z,61.10
2018-04-07T01:55:03.542Z,60.20
2018-04-07T01:57:41.430Z,59.70
2018-04-07T02:00:18.901Z,59.70
2018-04-07T02:02:54.019Z,59.80
2018-04-07T02:05:29.321Z,59.70
2018-04-07T02:08:05.650Z,60.10
2018-04-07T02:10:45.679Z,59.10
2018-04-07T02:13:20.878Z,59.90
2018-04-07T02:16:02.547Z,59.80
2018-04-07T02:18:40.388Z,59.70
2018-04-07T02:21:13.112Z,59.70
2018-04-07T02:23:46.576Z,60.20
2018-04-07T02:26:19.313Z,60.20
2018-04-07T02:28:52.020Z,60.30
2018-04-07T02:31:28.121Z,60.50
2018-04-07T02:34:01.603Z,60.40
2018-04-07T02:36:35.126Z,60.60
2018-04-07T02:39:09.567Z,60.90
2018-04-07T02:41:42.294Z,61.50
2018-04-07T02:44:15.000Z,60.90
2018-04-07T02:46:55.626Z,61.10
2018-04-07T02:49:28.347Z,61.00
2018-04-07T02:52:01.885Z,61.40
2018-04-07T02:54:34.585Z,61.40
2018-04-07T02:57:08.293Z,61.40
2018-04-07T02:59:40.989Z,60.80
2018-04-07T03:02:16.554Z,62.10
2018-04-07T03:04:49.252Z,61.50
2018-04-07T03:07:22.007Z,61.40
2018-04-07T03:09:55.466Z,61.40
2018-04-07T03:12:28.201Z,61.40
2018-04-07T03:15:00.902Z,61.20
2018-04-07T03:17:34.666Z,60.90
2018-04-07T03:20:08.132Z,61.20
2018-04-07T03:22:40.930Z,61.20
2018-04-07T03:25:13.629Z,61.40
2018-04-07T03:27:46.360Z,61.90
2018-04-07T03:30:19.055Z,62.30
2018-04-07T03:32:52.825Z,62.20
2018-04-07T03:35:25.514Z,62.20
2018-04-07T03:37:58.240Z,62.70
2018-04-07T03:40:31.698Z,63.80
2018-04-07T03:43:04.443Z,63.80
2018-04-07T03:45:38.140Z,64.60
2018-04-07T03:48:14.198Z,64.70
2018-04-07T03:50:46.914Z,64.40
2018-04-07T03:53:19.643Z,64.40
2018-04-07T03:55:52.333Z,64.70
2018-04-07T03:58:25.069Z,63.90
2018-04-07T04:00:58.780Z,64.30
2018-04-07T04:03:38.616Z,63.80
2018-04-07T04:06:12.086Z,63.40
2018-04-07T04:08:44.818Z,63.00
2018-04-07T04:11:17.532Z,63.30
2018-04-07T04:13:50.258Z,62.60
2018-04-07T04:16:24.681Z,62.20
2018-04-07T04:18:59.206Z,62.30
2018-04-07T04:21:32.665Z,62.20
2018-04-07T04:24:05.409Z,62.20
2018-04-07T04:26:38.109Z,62.80
2018-04-07T04:29:10.842Z,63.40
2018-04-07T04:31:43.568Z,63.70
2018-04-07T04:34:23.537Z,64.50
2018-04-07T04:36:56.230Z,64.90
2018-04-07T04:39:28.980Z,65.30
2018-04-07T04:42:01.689Z,65.20
2018-04-07T04:44:35.186Z,65.30
2018-04-07T04:47:07.871Z,65.30
2018-04-07T04:49:47.787Z,64.90
2018-04-07T04:52:21.649Z,64.90
2018-04-07T04:54:54.343Z,65.40
2018-04-07T04:57:27.078Z,64.30
2018-04-07T05:00:00.536Z,63.50
2018-04-07T05:02:33.372Z,63.60
2018-04-07T05:05:06.065Z,63.10
2018-04-07T05:07:38.796Z,63.10
2018-04-07T05:10:11.492Z,61.90
2018-04-07T05:12:44.985Z,62.40
2018-04-07T05:15:17.693Z,62.40
2018-04-07T05:17:50.447Z,62.90
2018-04-07T05:20:24.882Z,62.30
2018-04-07T05:22:57.617Z,62.30
2018-04-07T05:25:30.313Z,61.80
2018-04-07T05:28:03.045Z,61.50
2018-04-07T05:30:35.765Z,61.90
2018-04-07T05:33:09.453Z,61.40
2018-04-07T05:35:42.150Z,61.40
2018-04-07T05:38:14.925Z,60.70
2018-04-07T05:40:48.603Z,61.10
2018-04-07T05:43:21.361Z,60.50
2018-04-07T05:45:54.067Z,60.60
2018-04-07T05:48:27.820Z,60.80
2018-04-07T05:51:00.509Z,60.30
2018-04-07T05:53:33.239Z,60.20
2018-04-07T05:56:05.948Z,59.80
2018-04-07T05:58:38.688Z,59.80
2018-04-07T06:01:11.513Z,59.30
2018-04-07T06:03:44.269Z,58.80
2018-04-07T06:06:17.961Z,58.60
2018-04-07T06:08:51.135Z,58.10
2018-04-07T06:11:23.823Z,57.80
2018-04-07T06:13:56.551Z,57.70
2018-04-07T06:16:29.242Z,56.70
2018-04-07T06:19:02.805Z,56.10
2018-04-07T06:21:35.536Z,56.10
2018-04-07T06:24:08.405Z,54.90
2018-04-07T06:26:41.105Z,55.40
2018-04-07T06:29:13.832Z,55.60
2018-04-07T06:31:47.297Z,54.40
2018-04-07T06:34:28.044Z,54.50
2018-04-07T06:37:00.742Z,54.50
2018-04-07T06:39:33.469Z,54.30
2018-04-07T06:42:07.136Z,53.70
2018-04-07T06:44:39.880Z,53.60
2018-04-07T06:47:12.577Z,52.90
2018-04-07T06:49:47.321Z,52.50
2018-04-07T06:52:20.020Z,50.90
2018-04-07T06:54:53.518Z,48.60
2018-04-07T06:57:26.224Z,48.60
2018-04-07T06:59:58.958Z,48.70
2018-04-07T07:02:32.423Z,46.60
2018-04-07T07:05:05.197Z,46.50
2018-04-07T07:07:37.890Z,46.30
2018-04-07T07:10:10.622Z,48.20
2018-04-07T07:12:44.314Z,48.10
2018-04-07T07:15:17.046Z,48.20
2018-04-07T07:17:49.934Z,48.70
2018-04-07T07:20:23.637Z,48.50
2018-04-07T07:22:56.357Z,48.10
2018-04-07T07:25:31.812Z,46.50
2018-04-07T07:28:05.173Z,45.80
2018-04-07T07:30:37.941Z,45.10
2018-04-07T07:33:10.646Z,45.00
2018-04-07T07:35:47.299Z,43.70
2018-04-07T07:38:20.017Z,43.70
2018-04-07T07:40:52.776Z,42.50
2018-04-07T07:43:25.489Z,42.50
2018-04-07T07:45:58.502Z,42.90
2018-04-07T07:48:31.212Z,43.50
2018-04-07T07:51:12.146Z,42.80
2018-04-07T07:53:44.909Z,42.70
2018-04-07T07:56:17.615Z,41.80
2018-04-07T07:58:50.353Z,41.70
2018-04-07T08:04:07.033Z,41.70
2018-04-07T08:06:43.877Z,39.30
2018-04-07T08:09:16.622Z,39.20
2018-04-07T08:11:49.898Z,40.90
2018-04-07T08:14:41.508Z,39.80
2018-04-07T08:17:27.633Z,40.00
2018-04-07T08:20:15.255Z,38.50
2018-04-07T08:22:53.444Z,38.50
2018-04-07T08:25:34.982Z,37.90
2018-04-07T08:28:20.014Z,38.30
2018-04-07T08:31:02.012Z,37.40
2018-04-07T08:33:54.944Z,37.00
2018-04-07T08:39:24.672Z,35.50
2018-04-07T08:42:09.686Z,36.00
2018-04-07T08:44:42.648Z,35.70
2018-04-07T08:47:15.363Z,36.40
2018-04-07T08:49:48.099Z,35.60
2018-04-07T08:55:28.171Z,34.90
2018-04-07T08:58:15.212Z,34.60
2018-04-07T09:00:50.162Z,34.50
2018-04-07T09:03:44.182Z,35.70
2018-04-07T09:21:01.526Z,34.30
2018-04-07T09:26:21.178Z,32.60
2018-04-07T09:29:05.219Z,32.70
2018-04-07T09:31:45.233Z,34.00
2018-04-07T09:34:24.994Z,33.20
2018-04-07T09:37:23.076Z,33.70
2018-04-07T09:45:31.881Z,33.30
2018-04-07T09:48:12.368Z,32.50
2018-04-07T09:50:55.105Z,33.10
2018-04-07T09:53:35.948Z,32.20
2018-04-07T09:58:57.608Z,30.10
2018-04-07T10:09:21.926Z,30.70
2018-04-07T10:11:57.908Z,30.70
2018-04-07T10:14:32.498Z,30.40
2018-04-07T10:17:11.965Z,30.30
2018-04-07T10:19:47.995Z,30.50
2018-04-07T10:25:07.366Z,30.40
2018-04-07T10:27:46.001Z,29.80
2018-04-07T10:30:26.716Z,30.20
2018-04-07T10:33:05.954Z,31.40
2018-04-07T10:41:24.803Z,30.90
2018-04-07T10:46:49.137Z,31.90
2018-04-07T10:49:34.722Z,30.20
2018-04-07T10:54:55.522Z,29.90
2018-04-07T10:57:37.761Z,31.00
2018-04-07T11:03:10.154Z,31.50
2018-04-07T11:05:59.333Z,31.60
2018-04-07T11:08:41.277Z,31.60
2018-04-07T11:17:18.095Z,31.40
2018-04-07T11:22:44.605Z,30.40
2018-04-07T11:25:29.541Z,31.00
2018-04-07T11:28:13.007Z,31.00
2018-04-07T11:30:52.665Z,30.10
2018-04-07T11:36:08.474Z,29.80
2018-04-07T11:41:43.586Z,29.00
2018-04-07T11:44:16.432Z,30.10
2018-04-07T11:46:49.143Z,30.00
2018-04-07T11:49:21.932Z,32.40
2018-04-07T11:51:58.421Z,32.50
2018-04-07T11:54:35.469Z,32.00
2018-04-07T11:57:08.243Z,30.10
2018-04-07T11:59:41.005Z,30.40
2018-04-07T12:02:13.706Z,29.80
2018-04-07T12:04:46.457Z,30.00
2018-04-07T12:07:20.182Z,29.90
2018-04-07T12:09:52.928Z,30.00
2018-04-07T12:12:25.638Z,30.70
2018-04-07T12:14:58.384Z,30.00
2018-04-07T12:17:31.095Z,31.30
2018-04-07T12:23:03.506Z,30.00
2018-04-07T12:25:46.090Z,31.80
2018-04-07T12:28:18.914Z,29.80
2018-04-07T12:30:52.423Z,30.00
2018-04-07T12:33:32.562Z,30.00
2018-04-07T12:39:09.982Z,29.60
2018-04-07T12:41:52.101Z,29.80
2018-04-07T12:44:29.176Z,31.00
2018-04-07T12:47:03.270Z,29.80
2018-04-07T12:49:36.976Z,29.80
2018-04-07T12:52:20.194Z,29.60
2018-04-07T12:55:10.105Z,30.10
2018-04-07T12:57:52.309Z,30.00
2018-04-07T13:00:39.058Z,29.60
2018-04-07T13:03:18.413Z,30.50
2018-04-07T13:05:56.718Z,31.60
2018-04-07T13:08:37.822Z,31.70
2018-04-07T13:11:10.582Z,30.70
2018-04-07T13:13:44.274Z,32.20
2018-04-07T13:16:17.778Z,31.80
2018-04-07T13:18:50.479Z,31.70
2018-04-07T13:21:23.222Z,31.50
2018-04-07T13:23:56.696Z,31.20
2018-04-07T13:26:29.457Z,31.30
2018-04-07T13:29:02.162Z,31.90
2018-04-07T13:31:34.912Z,30.50
2018-04-07T13:34:07.624Z,31.80
2018-04-07T13:36:42.172Z,31.60
2018-04-07T13:41:59.540Z,31.60
2018-04-07T13:44:32.237Z,31.00
2018-04-07T13:47:04.991Z,30.20
2018-04-07T13:49:37.697Z,31.20
2018-04-07T13:52:10.445Z,31.60
2018-04-07T13:55:06.953Z,30.50
2018-04-07T13:57:40.468Z,30.90
2018-04-07T14:00:13.196Z,30.80
2018-04-07T14:02:45.945Z,30.00
2018-04-07T14:05:18.651Z,31.50
2018-04-07T14:10:59.602Z,32.20
2018-04-07T14:13:32.343Z,33.20
2018-04-07T14:16:05.096Z,32.20
2018-04-07T14:18:37.799Z,32.30
2018-04-07T14:21:10.568Z,31.60
2018-04-07T14:23:43.339Z,31.70
2018-04-07T14:26:16.080Z,31.60
2018-04-07T14:28:48.790Z,31.60
2018-04-07T14:31:21.538Z,32.70
2018-04-07T14:33:54.248Z,33.10
2018-04-07T14:36:35.914Z,32.20
2018-04-07T14:39:35.378Z,33.90
2018-04-07T14:42:22.104Z,33.90
2018-04-07T14:45:00.371Z,33.90
2018-04-07T14:50:25.236Z,34.20
2018-04-07T14:53:04.271Z,32.70
2018-04-07T14:55:46.704Z,32.90
2018-04-07T14:58:28.056Z,32.90
2018-04-07T15:01:06.368Z,33.50
2018-04-07T15:03:39.158Z,33.90
2018-04-07T15:06:12.674Z,33.90
2018-04-07T15:08:53.920Z,33.90
2018-04-07T15:11:26.674Z,34.50
2018-04-07T15:14:00.198Z,35.00
2018-04-07T15:16:32.942Z,35.00
2018-04-07T15:19:06.422Z,35.20
2018-04-07T15:21:39.164Z,35.10
2018-04-07T15:24:15.445Z,35.30
2018-04-07T15:26:48.187Z,34.80
2018-04-07T15:29:20.889Z,34.80
2018-04-07T15:31:53.625Z,35.00
2018-04-07T15:34:27.095Z,35.60
2018-04-07T15:36:59.903Z,35.60
2018-04-07T15:39:39.372Z,34.90
2018-04-07T15:42:12.118Z,34.90
2018-04-07T15:44:45.599Z,33.20
2018-04-07T15:47:18.389Z,33.10
2018-04-07T15:49:52.813Z,33.40
2018-04-07T15:52:26.321Z,33.30
2018-04-07T15:55:01.832Z,33.50
2018-04-07T15:57:44.085Z,33.50
2018-04-07T16:03:06.360Z,34.10
2018-04-07T16:05:40.153Z,34.40
2018-04-07T16:08:12.887Z,34.90
2018-04-07T16:10:48.447Z,34.50
2018-04-07T16:13:21.159Z,34.50
2018-04-07T16:15:54.866Z,35.00
2018-04-07T16:18:27.596Z,35.40
2018-04-07T16:21:01.107Z,35.20
2018-04-07T16:23:33.814Z,35.20
2018-04-07T16:26:10.446Z,35.30
2018-04-07T16:28:43.908Z,35.80
2018-04-07T16:31:16.677Z,35.80
2018-04-07T16:33:49.393Z,36.60
2018-04-07T16:36:23.937Z,37.00
2018-04-07T16:38:56.637Z,37.60
2018-04-07T16:41:30.202Z,37.10
2018-04-07T16:44:03.712Z,37.70
2018-04-07T16:46:36.453Z,37.70
2018-04-07T16:49:09.191Z,38.20
2018-04-07T16:51:41.902Z,38.50
2018-04-07T16:54:20.522Z,38.90
2018-04-07T16:56:53.235Z,39.10
2018-04-07T16:59:42.822Z,39.60
2018-04-07T17:02:33.886Z,39.50
2018-04-07T17:08:11.281Z,40.70
2018-04-07T17:10:57.072Z,42.10
2018-04-07T17:13:33.246Z,42.10
2018-04-07T17:18:48.646Z,43.00
2018-04-07T17:21:25.644Z,42.80
2018-04-07T17:24:02.956Z,43.40
2018-04-07T17:26:39.215Z,43.30
2018-04-07T17:29:19.585Z,44.00
2018-04-07T17:34:52.075Z,44.50
2018-04-07T17:37:39.248Z,44.80
2018-04-07T17:40:18.728Z,44.70
2018-04-07T17:42:59.897Z,43.90
2018-04-07T17:48:32.725Z,44.50
2018-04-07T17:51:26.688Z,44.20
2018-04-07T17:54:05.920Z,44.10
2018-04-07T17:59:31.094Z,44.50
2018-04-07T18:04:57.452Z,43.40
2018-04-07T18:07:36.120Z,43.90
2018-04-07T18:10:18.946Z,44.50
2018-04-07T18:15:36.141Z,45.30
2018-04-07T18:23:59.440Z,45.90
2018-04-07T18:26:34.156Z,46.90
2018-04-07T18:29:07.157Z,46.90
2018-04-07T18:34:33.800Z,49.20
2018-04-07T18:37:06.946Z,49.20
2018-04-07T18:39:41.927Z,50.50
2018-04-07T18:42:21.952Z,51.40
2018-04-07T18:44:55.779Z,51.50
2018-04-07T18:47:30.065Z,52.40
2018-04-07T18:50:07.585Z,52.20
2018-04-07T18:55:39.365Z,52.60
2018-04-07T18:58:26.542Z,53.20
2018-04-07T19:01:10.059Z,53.50
2018-04-07T19:03:49.618Z,52.10
2018-04-07T19:11:58.049Z,50.40
2018-04-07T19:14:33.698Z,49.40
2018-04-07T19:17:08.182Z,49.70
2018-04-07T19:19:41.702Z,49.70
2018-04-07T19:22:14.498Z,50.70
2018-04-07T19:24:47.990Z,50.50
2018-04-07T19:27:28.575Z,50.70
2018-04-07T19:30:02.966Z,50.70
2018-04-07T19:32:35.719Z,50.60
2018-04-07T19:35:09.867Z,50.80
2018-04-07T19:37:42.688Z,51.00
2018-04-07T19:40:15.402Z,50.70
2018-04-07T19:42:59.649Z,51.50
2018-04-07T19:45:32.455Z,51.50
2018-04-07T19:48:05.984Z,52.60
2018-04-07T19:50:48.096Z,52.20
2018-04-07T19:53:20.932Z,52.60
2018-04-07T19:55:54.640Z,53.40
2018-04-07T20:01:18.599Z,53.80
2018-04-07T20:03:51.567Z,53.80
2018-04-07T20:06:27.749Z,53.70
2018-04-07T20:09:00.499Z,54.10
2018-04-07T20:11:33.228Z,54.20
2018-04-07T20:14:07.530Z,55.20
2018-04-07T20:16:40.426Z,55.20
2018-04-07T20:19:15.397Z,55.70
2018-04-07T20:21:48.937Z,55.60
2018-04-07T20:24:23.743Z,55.60
2018-04-07T20:29:59.089Z,55.60
2018-04-07T20:32:39.594Z,55.60
2018-04-07T20:35:19.360Z,55.60
2018-04-07T20:37:52.827Z,54.70
2018-04-07T20:40:25.560Z,54.70
2018-04-07T20:43:00.628Z,54.50
2018-04-07T20:45:34.312Z,53.40
2018-04-07T20:48:07.168Z,53.80
2018-04-07T20:53:25.968Z,54.10
2018-04-07T20:56:10.329Z,54.10
2018-04-07T20:58:44.579Z,53.80
2018-04-07T21:01:18.049Z,53.10
2018-04-07T21:03:55.794Z,53.10
2018-04-07T21:06:47.293Z,52.70
2018-04-07T21:09:24.996Z,52.20
2018-04-07T21:12:04.440Z,52.10
2018-04-07T21:14:44.215Z,52.00
2018-04-07T21:17:20.115Z,51.70
2018-04-07T21:20:05.847Z,51.90
2018-04-07T21:22:46.783Z,52.10
2018-04-07T21:28:23.682Z,52.20
2018-04-07T21:30:56.452Z,52.20
2018-04-07T21:33:29.960Z,52.40
2018-04-07T21:36:04.406Z,52.60
2018-04-07T21:38:37.143Z,52.50
2018-04-07T21:44:14.205Z,52.40
2018-04-07T21:47:19.504Z,51.90
2018-04-07T21:49:54.506Z,51.50
2018-04-07T21:52:29.095Z,51.30
2018-04-07T21:55:06.485Z,51.10
2018-04-07T21:57:49.643Z,51.00
2018-04-07T22:00:23.396Z,51.00
2018-04-07T22:03:02.440Z,51.60
2018-04-07T22:05:55.947Z,51.10
2018-04-07T22:11:30.896Z,51.50
2018-04-07T22:14:10.851Z,52.70
2018-04-07T22:16:54.270Z,52.60
2018-04-07T22:22:37.125Z,52.90
2018-04-07T22:28:03.174Z,52.90
2018-04-07T22:33:20.571Z,53.60
2018-04-07T22:38:45.923Z,54.80
2018-04-07T22:41:33.950Z,54.20
2018-04-07T22:44:15.832Z,54.00
2018-04-07T22:46:50.933Z,54.00
2018-04-07T22:49:28.612Z,53.90
2018-04-07T22:52:21.523Z,54.20
2018-04-07T22:57:53.265Z,54.30
2018-04-07T23:06:01.907Z,54.60
2018-04-07T23:08:34.716Z,54.70
2018-04-07T23:11:07.463Z,55.10
2018-04-07T23:13:43.951Z,55.20
2018-04-07T23:16:16.783Z,55.20
2018-04-07T23:18:49.497Z,55.60
2018-04-07T23:26:58.223Z,55.70
2018-04-07T23:52:15.095Z,55.50
2018-04-07T23:54:54.524Z,55.50
2018-04-07T23:57:36.359Z,55.50
